createdAt,value
2018-06-28T17:48:38.443Z,56.20
2018-06-28T17:51:07.964Z,57.30
2018-06-28T17:53:39.418Z,57.50
2018-06-28T17:56:08.605Z,58.20
2018-06-28T17:58:42.924Z,57.40
2018-06-28T18:01:11.130Z,58.60
2018-06-28T18:03:39.300Z,59.60
2018-06-28T18:06:07.821Z,59.90
2018-06-28T18:08:36.208Z,58.70
2018-06-28T18:11:04.624Z,58.80
2018-06-28T18:13:32.972Z,59.00
2018-06-28T18:16:01.470Z,59.40
2018-06-28T18:18:29.905Z,60.60
2018-06-28T18:20:58.287Z,60.30
2018-06-28T18:23:26.693Z,61.60
2018-06-28T18:25:55.245Z,61.90
2018-06-28T18:28:23.522Z,62.60
2018-06-28T18:30:51.938Z,62.20
2018-06-28T18:33:20.274Z,63.50
2018-06-28T18:35:48.664Z,64.50
2018-06-28T18:38:17.007Z,64.80
2018-06-28T18:40:45.425Z,64.80
2018-06-28T18:43:13.776Z,64.80
2018-06-28T18:45:42.102Z,64.50
2018-06-28T18:48:10.457Z,63.80
2018-06-28T18:50:38.891Z,66.40
2018-06-28T18:53:07.283Z,66.60
2018-06-28T18:55:35.679Z,66.20
2018-06-28T18:58:04.139Z,67.00
2018-06-28T19:00:32.531Z,67.60
2018-06-28T19:03:06.345Z,65.80
2018-06-28T19:05:34.782Z,67.10
2018-06-28T19:08:03.309Z,67.50
2018-06-28T19:10:36.896Z,67.70
2018-06-28T19:13:05.260Z,69.00
2018-06-28T19:15:38.655Z,68.60
2018-06-28T19:18:06.976Z,66.50
2018-06-28T19:20:35.253Z,67.90
2018-06-28T19:23:08.790Z,68.30
2018-06-28T19:25:37.087Z,68.40
2018-06-28T19:28:05.516Z,68.70
2018-06-28T19:30:39.079Z,68.90
2018-06-28T19:33:07.604Z,69.40
2018-06-28T19:35:35.998Z,70.20
2018-06-28T19:38:04.477Z,69.70
2018-06-28T19:40:37.990Z,69.60
2018-06-28T19:43:08.484Z,69.30
2018-06-28T19:45:36.880Z,69.20
2018-06-28T19:48:05.311Z,69.70
2018-06-28T19:50:38.878Z,67.90
2018-06-28T19:53:10.377Z,67.70
2018-06-28T19:55:38.746Z,67.60
2018-06-28T19:58:07.023Z,67.40
2018-06-28T20:00:40.695Z,67.10
2018-06-28T20:03:14.096Z,70.10
2018-06-28T20:05:42.346Z,70.70
2018-06-28T20:10:38.401Z,68.60
2018-06-28T20:13:11.941Z,68.50
2018-06-28T20:15:52.238Z,69.10
2018-06-28T20:19:25.766Z,69.10
2018-06-28T20:21:53.919Z,69.10
2018-06-28T20:24:22.352Z,69.00
2018-06-28T20:26:55.982Z,70.10
2018-06-28T20:29:29.447Z,69.50
2018-06-28T20:32:02.928Z,70.40
2018-06-28T20:34:31.122Z,68.80
2018-06-28T20:36:59.388Z,69.50
2018-06-28T20:39:27.709Z,69.30
2018-06-28T20:41:55.882Z,70.40
2018-06-28T20:44:24.091Z,69.80
2018-06-28T20:46:52.320Z,70.80
2018-06-28T20:49:20.555Z,69.20
2018-06-28T20:51:48.836Z,70.90
2018-06-28T20:54:17.024Z,70.10
2018-06-28T20:56:45.271Z,70.30
2018-06-28T20:59:13.567Z,72.10
2018-06-28T21:01:41.783Z,72.90
2018-06-28T21:04:09.985Z,72.20
2018-06-28T21:06:38.145Z,72.90
2018-06-28T21:09:07.417Z,72.90
2018-06-28T21:11:35.692Z,72.90
2018-06-28T21:14:04.011Z,72.50
2018-06-28T21:16:32.330Z,70.90
2018-06-28T21:19:00.534Z,71.80
2018-06-28T21:21:28.726Z,74.00
2018-06-28T21:23:56.925Z,72.20
2018-06-28T21:26:25.207Z,73.30
2018-06-28T21:28:53.514Z,72.00
2018-06-28T21:31:21.730Z,69.50
2018-06-28T21:33:49.930Z,73.10
2018-06-28T21:36:18.152Z,71.00
2018-06-28T21:38:46.406Z,73.00
2018-06-28T21:41:14.647Z,74.60
2018-06-28T21:43:42.874Z,76.00
2018-06-28T21:46:11.162Z,75.50
2018-06-28T21:48:39.404Z,75.20
2018-06-28T21:51:07.604Z,75.50
2018-06-28T21:56:03.501Z,70.80
2018-06-28T21:58:31.693Z,75.70
2018-06-28T22:00:59.924Z,75.10
2018-06-28T22:03:28.073Z,76.30
2018-06-28T22:05:56.250Z,74.10
2018-06-28T22:08:24.390Z,76.30
2018-06-28T22:10:52.587Z,76.60
2018-06-28T22:13:20.782Z,79.90
2018-06-28T22:15:49.067Z,79.40
2018-06-28T22:18:17.311Z,79.80
2018-06-28T22:20:45.519Z,80.50
2018-06-28T22:23:13.802Z,80.10
2018-06-28T22:25:42.046Z,80.20
2018-06-28T22:28:10.295Z,79.70
2018-06-28T22:30:38.506Z,78.60
2018-06-28T22:33:06.761Z,80.30
2018-06-28T22:35:34.926Z,81.40
2018-06-28T22:38:03.173Z,81.10
2018-06-28T22:40:31.455Z,81.70
2018-06-28T22:42:59.723Z,79.30
2018-06-28T22:45:27.924Z,81.40
2018-06-28T22:50:23.874Z,81.90
2018-06-28T22:52:52.090Z,82.50
2018-06-28T22:55:20.331Z,80.80
2018-06-28T22:57:48.505Z,83.20
2018-06-28T23:00:21.129Z,83.90
2018-06-28T23:02:49.409Z,83.50
2018-06-28T23:05:17.605Z,82.80
2018-06-28T23:07:45.782Z,81.10
2018-06-28T23:10:13.998Z,85.60
2018-06-28T23:12:42.301Z,84.10
2018-06-28T23:15:10.531Z,85.20
2018-06-28T23:17:38.856Z,84.00
2018-06-28T23:20:07.241Z,86.30
2018-06-28T23:22:41.230Z,88.20
2018-06-28T23:25:09.818Z,88.60
2018-06-28T23:27:38.107Z,88.80
2018-06-28T23:30:06.362Z,88.30
2018-06-28T23:32:34.599Z,88.40
2018-06-28T23:35:02.834Z,85.00
2018-06-28T23:37:31.091Z,89.00
2018-06-28T23:39:59.297Z,88.60
2018-06-28T23:42:27.600Z,87.10
2018-06-28T23:44:55.869Z,90.00
2018-06-28T23:47:24.034Z,83.30
2018-06-28T23:49:52.202Z,85.30
2018-06-28T23:52:20.818Z,86.80
2018-06-28T23:54:49.138Z,87.30
2018-06-28T23:57:17.382Z,89.80
2018-06-28T23:59:45.663Z,86.30
